createdAt,value
2019-01-18T00:02:15.944Z,1.60
2019-01-18T00:04:46.533Z,1.90
2019-01-18T00:07:17.110Z,1.70
2019-01-18T00:09:47.728Z,1.70
2019-01-18T00:12:18.276Z,1.80
2019-01-18T00:14:48.880Z,2.00
2019-01-18T00:17:20.088Z,1.80
2019-01-18T00:19:50.715Z,2.10
2019-01-18T00:22:21.275Z,2.00
2019-01-18T00:24:51.829Z,2.20
2019-01-18T00:27:22.367Z,2.10
2019-01-18T00:29:52.891Z,1.70
2019-01-18T00:32:23.504Z,2.10
2019-01-18T00:34:54.208Z,2.10
2019-01-18T00:37:24.783Z,2.40
2019-01-18T00:39:55.337Z,2.20
2019-01-18T00:42:25.876Z,2.40
2019-01-18T00:44:56.427Z,2.10
2019-01-18T00:47:26.944Z,2.20
2019-01-18T00:49:57.490Z,2.10
2019-01-18T00:52:28.048Z,2.20
2019-01-18T00:54:58.584Z,2.30
2019-01-18T00:57:29.140Z,2.20
2019-01-18T00:59:59.659Z,2.20
2019-01-18T01:02:30.235Z,2.00
2019-01-18T01:05:00.799Z,2.30
2019-01-18T01:07:31.347Z,2.20
2019-01-18T01:10:01.889Z,2.30
2019-01-18T01:12:32.479Z,2.20
2019-01-18T01:15:03.692Z,2.30
2019-01-18T01:17:34.269Z,2.40
2019-01-18T01:20:05.325Z,2.20
2019-01-18T01:22:35.860Z,2.50
2019-01-18T01:25:06.543Z,2.30
2019-01-18T01:27:37.091Z,2.30
2019-01-18T01:30:11.832Z,2.30
2019-01-18T01:32:42.427Z,2.30
2019-01-18T01:35:13.095Z,2.10
2019-01-18T01:37:43.884Z,2.40
2019-01-18T01:40:16.915Z,2.30
2019-01-18T01:42:47.503Z,2.10
2019-01-18T01:45:18.069Z,2.10
2019-01-18T01:47:48.735Z,1.90
2019-01-18T01:50:24.120Z,2.40
2019-01-18T01:52:55.012Z,2.30
2019-01-18T01:55:25.592Z,2.30
2019-01-18T01:57:57.004Z,2.20
2019-01-18T02:00:28.999Z,2.20
2019-01-18T02:02:59.561Z,2.40
2019-01-18T02:05:30.180Z,2.30
2019-01-18T02:08:00.737Z,2.20
2019-01-18T02:10:31.360Z,2.10
2019-01-18T02:13:02.177Z,2.00
2019-01-18T02:15:32.772Z,2.30
2019-01-18T02:18:03.356Z,2.40
2019-01-18T02:20:34.084Z,2.50
2019-01-18T02:23:04.625Z,2.50
2019-01-18T02:25:35.163Z,2.40
2019-01-18T02:28:05.697Z,2.70
2019-01-18T02:30:36.267Z,2.60
2019-01-18T02:33:06.811Z,2.80
2019-01-18T02:35:37.344Z,3.00
2019-01-18T02:38:07.886Z,3.00
2019-01-18T02:40:38.440Z,3.20
2019-01-18T02:43:09.032Z,3.20
2019-01-18T02:45:39.585Z,3.40
2019-01-18T02:48:10.136Z,3.00
2019-01-18T02:50:41.011Z,3.00
2019-01-18T02:53:11.584Z,3.00
2019-01-18T02:55:42.288Z,3.40
2019-01-18T02:58:12.854Z,3.10
2019-01-18T03:00:43.407Z,3.40
2019-01-18T03:03:13.951Z,3.20
2019-01-18T03:05:44.512Z,3.20
2019-01-18T03:08:15.324Z,3.10
2019-01-18T03:10:45.931Z,3.20
2019-01-18T03:13:16.508Z,3.30
2019-01-18T03:15:47.161Z,3.40
2019-01-18T03:18:17.704Z,3.30
2019-01-18T03:20:48.255Z,3.10
2019-01-18T03:23:18.825Z,3.00
2019-01-18T03:25:49.404Z,3.00
2019-01-18T03:28:20.063Z,3.30
2019-01-18T03:30:51.491Z,3.40
2019-01-18T03:33:22.059Z,3.20
2019-01-18T03:35:52.688Z,3.10
2019-01-18T03:38:23.203Z,3.20
2019-01-18T03:40:53.746Z,3.00
2019-01-18T03:43:24.613Z,3.00
2019-01-18T03:45:55.415Z,3.10
2019-01-18T03:48:25.941Z,3.10
2019-01-18T03:50:56.479Z,3.10
2019-01-18T03:53:27.063Z,3.10
2019-01-18T03:55:57.612Z,3.30
2019-01-18T03:58:28.133Z,3.30
2019-01-18T04:00:58.944Z,3.40
2019-01-18T04:03:29.500Z,3.30
2019-01-18T04:06:00.042Z,3.40
2019-01-18T04:08:30.787Z,3.30
2019-01-18T04:11:01.380Z,3.30
2019-01-18T04:13:31.912Z,3.20
2019-01-18T04:16:02.460Z,3.30
2019-01-18T04:18:33.012Z,3.50
2019-01-18T04:21:03.575Z,3.20
2019-01-18T04:23:34.401Z,3.40
2019-01-18T04:26:04.979Z,3.40
2019-01-18T04:28:35.669Z,3.40
2019-01-18T04:31:06.281Z,3.60
2019-01-18T04:33:37.001Z,3.40
2019-01-18T04:36:07.534Z,3.50
2019-01-18T04:38:38.124Z,3.40
2019-01-18T04:41:08.703Z,3.40
2019-01-18T04:43:39.273Z,3.50
2019-01-18T04:46:09.816Z,3.40
2019-01-18T04:48:40.355Z,3.40
2019-01-18T04:51:10.899Z,3.50
2019-01-18T04:53:41.474Z,3.50
2019-01-18T04:56:12.045Z,3.50
2019-01-18T04:58:42.560Z,3.40
2019-01-18T05:01:13.560Z,3.40
2019-01-18T05:03:44.110Z,3.40
2019-01-18T05:06:14.956Z,3.50
2019-01-18T05:08:45.784Z,3.40
2019-01-18T05:11:16.332Z,3.50
2019-01-18T05:13:46.867Z,3.40
2019-01-18T05:16:17.873Z,3.40
2019-01-18T05:18:48.447Z,3.60
2019-01-18T05:21:19.403Z,3.20
2019-01-18T05:23:50.124Z,3.30
2019-01-18T05:26:20.772Z,3.40
2019-01-18T05:28:51.419Z,3.50
2019-01-18T05:31:22.051Z,3.50
2019-01-18T05:33:52.633Z,3.20
2019-01-18T05:36:23.218Z,3.30
2019-01-18T05:38:54.224Z,3.30
2019-01-18T05:41:24.849Z,3.30
2019-01-18T05:43:57.467Z,3.30
2019-01-18T05:46:28.144Z,3.20
2019-01-18T05:48:58.689Z,3.30
2019-01-18T05:51:29.241Z,3.20
2019-01-18T05:54:00.168Z,3.20
2019-01-18T05:56:30.691Z,3.20
2019-01-18T05:59:01.264Z,3.20
2019-01-18T06:01:31.820Z,3.40
2019-01-18T06:04:02.344Z,3.10
2019-01-18T06:06:32.880Z,3.10
2019-01-18T06:09:04.240Z,3.00
2019-01-18T06:11:34.783Z,3.30
2019-01-18T06:14:05.361Z,3.10
2019-01-18T06:16:35.886Z,3.30
2019-01-18T06:19:06.453Z,3.10
2019-01-18T06:21:37.025Z,3.20
2019-01-18T06:24:08.072Z,3.20
2019-01-18T06:26:38.642Z,2.90
2019-01-18T06:29:09.175Z,2.90
2019-01-18T06:31:39.747Z,3.00
2019-01-18T06:34:10.324Z,3.10
2019-01-18T06:36:40.877Z,3.30
2019-01-18T06:39:11.472Z,3.20
2019-01-18T06:41:51.848Z,2.80
2019-01-18T06:44:22.898Z,2.90
2019-01-18T06:46:54.077Z,3.00
2019-01-18T06:49:24.900Z,2.90
2019-01-18T06:51:55.473Z,3.10
2019-01-18T06:54:26.073Z,3.00
2019-01-18T06:56:56.623Z,3.10
2019-01-18T06:59:27.176Z,3.10
2019-01-18T07:01:57.740Z,3.10
2019-01-18T07:04:28.281Z,3.40
2019-01-18T07:06:59.453Z,3.30
2019-01-18T07:09:30.038Z,3.30
2019-01-18T07:12:00.640Z,3.40
2019-01-18T07:14:31.217Z,3.80
2019-01-18T07:17:01.832Z,3.50
2019-01-18T07:19:32.571Z,3.60
2019-01-18T07:22:03.475Z,3.60
2019-01-18T07:24:34.007Z,3.70
2019-01-18T07:27:04.731Z,3.70
2019-01-18T07:29:35.373Z,3.50
2019-01-18T07:32:24.313Z,3.30
2019-01-18T07:34:54.888Z,2.80
2019-01-18T07:37:49.893Z,2.60
2019-01-18T07:40:15.845Z,2.20
2019-01-18T07:42:46.388Z,2.20
2019-01-18T07:45:19.549Z,2.60
2019-01-18T07:47:50.144Z,2.50
2019-01-18T07:50:20.699Z,2.30
2019-01-18T07:52:51.341Z,2.10
2019-01-18T07:55:21.872Z,2.00
2019-01-18T07:57:52.531Z,2.10
2019-01-18T08:00:27.613Z,2.00
2019-01-18T08:02:58.152Z,2.10
2019-01-18T08:05:30.796Z,1.90
2019-01-18T08:08:02.977Z,1.90
2019-01-18T08:10:33.678Z,1.80
2019-01-18T08:13:04.333Z,1.80
2019-01-18T08:15:47.064Z,1.80
2019-01-18T08:18:17.645Z,1.80
2019-01-18T08:20:48.224Z,1.50
2019-01-18T08:23:18.802Z,1.70
2019-01-18T08:25:49.363Z,1.50
2019-01-18T08:28:19.980Z,1.30
2019-01-18T08:30:50.618Z,1.40
2019-01-18T08:33:21.291Z,1.30
2019-01-18T08:35:51.872Z,1.50
2019-01-18T08:38:22.825Z,1.20
2019-01-18T08:40:53.428Z,1.20
2019-01-18T08:43:23.976Z,1.10
2019-01-18T08:45:59.948Z,1.10
2019-01-18T08:48:30.500Z,1.30
2019-01-18T08:51:01.056Z,1.20
2019-01-18T08:53:31.560Z,0.90
2019-01-18T08:56:02.136Z,1.20
2019-01-18T08:58:32.771Z,1.10
2019-01-18T09:01:03.879Z,1.10
2019-01-18T09:03:34.681Z,1.30
2019-01-18T09:06:05.383Z,1.10
2019-01-18T09:08:36.275Z,1.20
2019-01-18T09:11:06.852Z,1.20
2019-01-18T09:13:37.389Z,1.20
2019-01-18T09:16:07.965Z,1.20
2019-01-18T09:18:38.646Z,1.10
2019-01-18T09:21:09.468Z,1.30
2019-01-18T09:23:40.035Z,0.90
2019-01-18T09:26:10.588Z,1.10
2019-01-18T09:28:41.159Z,1.20
2019-01-18T09:31:11.737Z,1.00
2019-01-18T09:33:42.331Z,1.20
2019-01-18T09:36:13.192Z,1.10
2019-01-18T09:38:43.795Z,1.00
2019-01-18T09:41:14.352Z,1.10
2019-01-18T09:43:45.324Z,1.30
2019-01-18T09:46:16.027Z,1.40
2019-01-18T09:48:46.597Z,1.20
2019-01-18T09:51:17.136Z,1.40
2019-01-18T09:53:47.700Z,1.10
2019-01-18T09:56:18.244Z,1.20
2019-01-18T09:58:48.876Z,1.00
2019-01-18T10:01:19.802Z,1.30
2019-01-18T10:03:50.376Z,1.30
2019-01-18T10:06:20.979Z,1.40
2019-01-18T10:08:51.520Z,1.50
2019-01-18T10:11:22.067Z,1.10
2019-01-18T10:13:52.697Z,1.20
2019-01-18T10:16:23.190Z,1.30
2019-01-18T10:18:53.863Z,1.30
2019-01-18T10:21:24.415Z,1.20
2019-01-18T10:23:54.992Z,0.80
2019-01-18T10:26:26.936Z,0.70
2019-01-18T10:28:57.509Z,1.00
2019-01-18T10:31:28.085Z,0.90
2019-01-18T10:33:58.633Z,0.80
2019-01-18T10:36:29.238Z,0.60
2019-01-18T10:38:59.771Z,0.80
2019-01-18T10:41:30.904Z,0.70
2019-01-18T10:44:05.906Z,0.40
2019-01-18T10:46:33.645Z,0.50
2019-01-18T10:49:04.204Z,0.60
2019-01-18T10:51:37.514Z,0.80
2019-01-18T10:54:08.099Z,0.50
2019-01-18T10:56:38.699Z,0.50
2019-01-18T10:59:09.279Z,0.90
2019-01-18T11:01:40.435Z,0.90
2019-01-18T11:04:10.940Z,1.20
2019-01-18T11:06:41.495Z,1.60
2019-01-18T11:09:12.031Z,1.60
2019-01-18T11:11:42.584Z,1.50
2019-01-18T11:14:13.156Z,1.50
2019-01-18T11:16:44.074Z,1.50
2019-01-18T11:19:15.068Z,1.40
2019-01-18T11:21:46.048Z,1.70
2019-01-18T11:24:16.592Z,1.60
2019-01-18T11:26:47.201Z,1.40
2019-01-18T11:29:17.763Z,1.40
2019-01-18T11:31:48.355Z,1.40
2019-01-18T11:34:19.262Z,1.60
2019-01-18T11:36:49.832Z,1.40
2019-01-18T11:39:21.800Z,1.60
2019-01-18T11:41:52.345Z,1.40
2019-01-18T11:44:23.025Z,1.70
2019-01-18T11:46:53.656Z,1.60
2019-01-18T11:49:24.167Z,1.90
2019-01-18T11:51:54.712Z,2.00
2019-01-18T11:54:25.425Z,1.70
2019-01-18T11:56:55.993Z,1.90
2019-01-18T11:59:26.539Z,1.80
2019-01-18T12:01:57.065Z,1.50
2019-01-18T12:04:27.627Z,1.40
2019-01-18T12:06:58.191Z,1.60
2019-01-18T12:09:28.816Z,1.60
2019-01-18T12:11:59.728Z,1.70
2019-01-18T12:14:30.247Z,1.60
2019-01-18T12:17:01.196Z,1.60
2019-01-18T12:19:31.716Z,1.70
2019-01-18T12:22:02.264Z,1.60
2019-01-18T12:24:32.891Z,1.60
2019-01-18T12:27:03.447Z,2.00
2019-01-18T12:29:34.045Z,1.80
2019-01-18T12:32:05.083Z,2.00
2019-01-18T12:34:42.001Z,2.00
2019-01-18T12:37:12.998Z,1.90
2019-01-18T12:39:43.594Z,1.90
2019-01-18T12:42:14.134Z,2.00
2019-01-18T12:44:44.696Z,1.90
2019-01-18T12:47:15.488Z,2.00
2019-01-18T12:49:46.069Z,2.00
2019-01-18T12:52:16.645Z,1.90
2019-01-18T12:54:47.236Z,2.10
2019-01-18T12:57:17.792Z,2.00
2019-01-18T12:59:48.348Z,1.60
2019-01-18T13:02:18.941Z,1.70
2019-01-18T13:04:49.476Z,1.30
2019-01-18T13:07:20.128Z,1.70
2019-01-18T13:09:50.725Z,1.70
2019-01-18T13:12:21.252Z,1.60
2019-01-18T13:14:51.804Z,1.50
2019-01-18T13:17:22.363Z,1.30
2019-01-18T13:19:52.911Z,1.30
2019-01-18T13:22:26.074Z,1.30
2019-01-18T13:24:56.094Z,1.30
2019-01-18T13:27:26.621Z,1.30
2019-01-18T13:29:57.153Z,1.10
2019-01-18T13:32:27.702Z,1.20
2019-01-18T13:34:58.276Z,1.10
2019-01-18T13:37:28.806Z,1.40
2019-01-18T13:39:59.381Z,1.40
2019-01-18T13:42:29.934Z,1.20
2019-01-18T13:45:00.588Z,1.30
2019-01-18T13:47:31.281Z,1.20
2019-01-18T13:50:01.814Z,1.10
2019-01-18T13:52:32.347Z,0.80
2019-01-18T13:55:02.880Z,1.20
2019-01-18T13:57:33.585Z,0.80
2019-01-18T14:00:04.524Z,1.20
2019-01-18T14:02:35.612Z,0.90
2019-01-18T14:05:06.398Z,0.80
2019-01-18T14:07:38.552Z,0.90
2019-01-18T14:10:21.447Z,0.80
2019-01-18T14:12:52.013Z,0.50
2019-01-18T14:15:23.524Z,0.60
2019-01-18T14:17:54.064Z,0.40
2019-01-18T14:20:24.708Z,0.80
2019-01-18T14:22:55.288Z,0.70
2019-01-18T14:25:26.020Z,0.80
2019-01-18T14:27:56.539Z,0.80
2019-01-18T14:30:27.286Z,0.50
2019-01-18T14:32:57.817Z,0.40
2019-01-18T14:35:29.127Z,0.60
2019-01-18T14:38:00.140Z,0.20
2019-01-18T14:40:31.220Z,0.20
2019-01-18T14:43:04.076Z,0.30
2019-01-18T14:45:37.572Z,0.50
2019-01-18T14:48:08.219Z,0.30
2019-01-18T14:50:43.378Z,0.20
2019-01-18T14:53:14.046Z,0.10
2019-01-18T14:55:44.959Z,0.20
2019-01-18T14:58:15.479Z,-0.10
2019-01-18T15:00:46.116Z,0.10
2019-01-18T15:03:16.792Z,0.10
2019-01-18T15:05:47.419Z,0.00
2019-01-18T15:08:24.068Z,0.00
2019-01-18T15:10:51.164Z,0.10
2019-01-18T15:13:21.725Z,0.00
2019-01-18T15:15:52.762Z,0.10
2019-01-18T15:18:23.706Z,0.10
2019-01-18T15:20:54.357Z,0.10
2019-01-18T15:23:24.918Z,0.30
2019-01-18T15:25:55.499Z,0.10
2019-01-18T15:28:26.123Z,0.20
2019-01-18T15:30:56.684Z,0.30
2019-01-18T15:33:27.274Z,0.30
2019-01-18T15:35:57.888Z,0.20
2019-01-18T15:38:28.974Z,0.20
2019-01-18T15:40:59.954Z,0.20
2019-01-18T15:43:30.565Z,0.40
2019-01-18T15:46:01.154Z,0.50
2019-01-18T15:48:31.747Z,0.20
2019-01-18T15:51:02.284Z,0.50
2019-01-18T15:53:32.824Z,0.40
2019-01-18T15:56:03.408Z,0.20
2019-01-18T15:58:33.971Z,0.20
2019-01-18T16:01:04.643Z,0.10
2019-01-18T16:03:35.387Z,0.00
2019-01-18T16:06:05.957Z,0.20
2019-01-18T16:08:36.523Z,0.30
2019-01-18T16:11:07.109Z,0.00
2019-01-18T16:13:37.860Z,0.40
2019-01-18T16:16:22.879Z,0.50
2019-01-18T16:18:54.373Z,0.30
2019-01-18T16:21:24.991Z,0.20
2019-01-18T16:23:55.552Z,0.30
2019-01-18T16:26:26.084Z,0.30
2019-01-18T16:28:56.806Z,0.40
2019-01-18T16:31:28.219Z,0.40
2019-01-18T16:33:58.794Z,0.30
2019-01-18T16:36:29.332Z,0.20
2019-01-18T16:38:59.845Z,0.30
2019-01-18T16:41:34.559Z,0.20
2019-01-18T16:44:05.133Z,0.40
2019-01-18T16:46:35.678Z,0.10
2019-01-18T16:49:06.212Z,0.20
2019-01-18T16:51:36.756Z,0.20
2019-01-18T16:54:07.288Z,0.20
2019-01-18T16:56:37.905Z,0.40
2019-01-18T16:59:08.511Z,0.40
2019-01-18T17:01:39.057Z,0.10
2019-01-18T17:04:09.624Z,0.20
2019-01-18T17:06:40.191Z,0.20
2019-01-18T17:09:10.776Z,0.00
2019-01-18T17:11:41.327Z,-0.20
2019-01-18T17:14:11.920Z,0.00
2019-01-18T17:16:45.010Z,-0.10
2019-01-18T17:19:14.632Z,-0.20
2019-01-18T17:21:45.228Z,-0.50
2019-01-18T17:24:15.784Z,-0.60
2019-01-18T17:26:46.314Z,-0.30
2019-01-18T17:29:16.843Z,-0.40
2019-01-18T17:31:47.566Z,-0.50
2019-01-18T17:34:18.148Z,-0.80
2019-01-18T17:37:11.688Z,-0.90
2019-01-18T17:40:35.486Z,-1.10
2019-01-18T17:43:42.771Z,-1.10
2019-01-18T17:46:28.587Z,-1.00
2019-01-18T17:50:07.809Z,-1.10
2019-01-18T17:53:19.742Z,-0.90
2019-01-18T17:56:37.289Z,-1.10
2019-01-18T17:59:39.699Z,-0.80
2019-01-18T18:02:52.812Z,-1.00
2019-01-18T18:06:10.592Z,-0.90
2019-01-18T18:09:21.312Z,-0.90
2019-01-18T18:12:18.999Z,-1.20
2019-01-18T18:15:15.553Z,-1.10
2019-01-18T18:17:59.352Z,-1.20
2019-01-18T18:21:26.218Z,-1.50
2019-01-18T18:24:37.035Z,-1.50
2019-01-18T18:27:51.428Z,-1.60
2019-01-18T18:30:53.219Z,-1.40
2019-01-18T18:33:58.717Z,-1.70
2019-01-18T18:37:12.900Z,-1.50
2019-01-18T18:40:19.622Z,-1.40
2019-01-18T18:43:42.997Z,-1.10
2019-01-18T18:46:49.653Z,-1.40
2019-01-18T18:50:08.356Z,-1.20
2019-01-18T18:53:04.647Z,-1.50
2019-01-18T18:56:22.302Z,-1.80
2019-01-18T19:02:46.361Z,-1.80
2019-01-18T19:06:09.965Z,-1.70
2019-01-18T19:09:33.629Z,-1.80
2019-01-18T19:13:06.579Z,-1.80
2019-01-18T19:16:28.005Z,-2.00
2019-01-18T19:19:37.169Z,-2.10
2019-01-18T19:22:31.802Z,-2.20
2019-01-18T19:26:01.696Z,-2.20
2019-01-18T19:29:02.756Z,-2.10
2019-01-18T19:32:25.359Z,-2.10
2019-01-18T19:35:25.588Z,-2.20
2019-01-18T19:38:37.331Z,-2.20
2019-01-18T19:41:59.006Z,-2.50
2019-01-18T19:45:10.381Z,-2.20
2019-01-18T19:48:18.180Z,-2.40
2019-01-18T19:51:09.475Z,-2.40
2019-01-18T19:54:29.089Z,-2.50
2019-01-18T19:57:36.833Z,-2.50
2019-01-18T20:00:40.270Z,-2.30
2019-01-18T20:04:11.408Z,-2.70
2019-01-18T20:07:23.928Z,-2.60
2019-01-18T20:10:16.202Z,-2.50
2019-01-18T20:13:18.740Z,-2.40
2019-01-18T20:16:21.162Z,-2.60
2019-01-18T20:19:16.857Z,-2.60
2019-01-18T20:22:11.793Z,-2.80
2019-01-18T20:25:10.689Z,-2.80
2019-01-18T20:28:07.618Z,-2.70
2019-01-18T20:31:05.901Z,-2.70
2019-01-18T20:34:19.384Z,-2.70
2019-01-18T20:37:26.497Z,-2.60
2019-01-18T20:40:20.839Z,-2.60
2019-01-18T20:43:22.419Z,-2.50
2019-01-18T20:46:30.007Z,-2.60
2019-01-18T20:49:53.743Z,-2.60
2019-01-18T20:52:51.796Z,-2.60
2019-01-18T20:55:53.306Z,-2.60
2019-01-18T20:58:49.380Z,-2.50
2019-01-18T21:02:04.436Z,-2.70
2019-01-18T21:05:28.230Z,-2.80
2019-01-18T21:08:20.572Z,-2.70
2019-01-18T21:11:12.795Z,-2.80
2019-01-18T21:14:10.894Z,-2.80
2019-01-18T21:17:28.723Z,-2.90
2019-01-18T21:20:35.160Z,-2.80
2019-01-18T21:23:52.748Z,-3.00
2019-01-18T21:26:46.872Z,-2.90
2019-01-18T21:29:49.396Z,-3.00
2019-01-18T21:32:41.153Z,-3.20
2019-01-18T21:35:38.550Z,-3.00
2019-01-18T21:38:52.003Z,-3.00
2019-01-18T21:41:52.763Z,-3.00
2019-01-18T21:45:05.865Z,-3.00
2019-01-18T21:48:08.818Z,-2.90
2019-01-18T21:51:35.687Z,-3.10
2019-01-18T21:54:24.463Z,-3.20
2019-01-18T21:57:10.038Z,-3.00
2019-01-18T22:00:21.834Z,-3.20
2019-01-18T22:03:32.787Z,-3.30
2019-01-18T22:06:30.472Z,-3.20
2019-01-18T22:09:10.888Z,-3.20
2019-01-18T22:12:39.258Z,-3.20
2019-01-18T22:16:07.599Z,-3.10
2019-01-18T22:19:07.782Z,-3.20
2019-01-18T22:22:19.194Z,-3.20
2019-01-18T22:25:34.679Z,-3.00
2019-01-18T22:28:45.655Z,-3.00
2019-01-18T22:31:50.149Z,-3.10
2019-01-18T22:34:50.358Z,-3.30
2019-01-18T22:37:56.065Z,-3.40
2019-01-18T22:41:05.166Z,-3.10
2019-01-18T22:43:57.761Z,-3.30
2019-01-18T22:47:21.996Z,-3.20
2019-01-18T22:50:28.109Z,-3.20
2019-01-18T22:53:35.590Z,-3.40
2019-01-18T22:56:31.797Z,-3.10
2019-01-18T22:59:34.872Z,-3.30
2019-01-18T23:02:52.660Z,-3.30
2019-01-18T23:06:01.291Z,-3.10
2019-01-18T23:08:43.336Z,-3.10
2019-01-18T23:11:38.563Z,-3.40
2019-01-18T23:15:01.064Z,-3.30
2019-01-18T23:18:12.399Z,-3.30
2019-01-18T23:21:18.214Z,-3.50
2019-01-18T23:24:26.538Z,-3.30
2019-01-18T23:27:33.935Z,-3.60
2019-01-18T23:30:35.481Z,-3.50
2019-01-18T23:33:42.286Z,-3.60
2019-01-18T23:36:53.556Z,-3.40
2019-01-18T23:39:40.107Z,-3.50
2019-01-18T23:43:00.179Z,-3.60
2019-01-18T23:46:21.148Z,-3.60
2019-01-18T23:49:16.971Z,-3.70
2019-01-18T23:52:24.299Z,-3.70
2019-01-18T23:55:28.201Z,-3.70
2019-01-18T23:58:24.295Z,-3.50
